Red Rock, Oklahoma
Current Conditions -  °F | °C
As of 3:53 PM on Friday 24 Oct 2014 (Local Time) from KPNC Reporting Station
Clear Clear  
Wind Chill: 84°   Ceiling: Unl
Heat Index: 85°   Visibility: 10mi
Dew Point: 62°   Wind: 10mph
Humidity: 47%   Direction: 220°SW
Pressure: 30"   Gusts: NA
Location:  36.46°N, 97.18°W
Report Text: KPNC 242053Z AUTO 22009KT 10SM CLR 29/17 A3000 RMK AO2 SLP147 T02890167 56024
Loading
Personal Weather Stations






























Interactive Weather Map
Tropical Storm Tracking
New forecast layout! Learn more

10-Day Weather Forecast

Advertisements
Track Severe Weather on mobile